Time;durP1;ratioP1;P1;durP2;ratioP2;P2;SDS_P1;SDS_P2;PMS_P1;PMS_P2;Temp;Humidity;BMP_temperature;BMP_pressure;BME280_temperature;BME280_humidity;BME280_pressure;Samples;Min_cycle;Max_cycle;Signal;HPM_P1;HPM_P2
2021/12/17 00:00:48;;;;;;;;;;;9.70;99.90;;;;;;5053643;28;20266;-74
2021/12/17 00:03:18;;;;;;;;;;;9.70;99.90;;;;;;5053049;28;19947;-74
2021/12/17 00:08:14;;;;;;;;;;;9.70;99.90;;;;;;5052983;28;19943;-74
2021/12/17 00:10:40;;;;;;;;;;;9.70;99.90;;;;;;5053551;28;19904;-74
2021/12/17 00:13:05;;;;;;;;;;;9.70;99.90;;;;;;5052748;28;19905;-75
2021/12/17 00:15:31;;;;;;;;;;;9.60;99.90;;;;;;5053236;28;19954;-74
2021/12/17 00:18:03;;;;;;;;;;;9.60;99.90;;;;;;5053358;28;19905;-74
2021/12/17 00:51:05;;;;;;;;;;;9.30;99.90;;;;;;5052643;28;19997;-75
2021/12/17 00:53:22;;;;;;;;;;;9.20;99.90;;;;;;5051928;28;19912;-75
2021/12/17 00:55:47;;;;;;;;;;;9.20;99.90;;;;;;5052985;28;19998;-75
2021/12/17 00:58:13;;;;;;;;;;;9.20;99.90;;;;;;5052808;28;19968;-75
2021/12/17 01:00:39;;;;;;;;;;;9.10;99.90;;;;;;5052664;28;19904;-75
2021/12/17 01:03:04;;;;;;;;;;;9.00;99.90;;;;;;5053316;28;19958;-75
2021/12/17 01:05:30;;;;;;;;;;;9.00;99.90;;;;;;5052229;28;20023;-75
2021/12/17 01:07:57;;;;;;;;;;;8.90;99.90;;;;;;5052581;28;19916;-75
2021/12/17 01:10:27;;;;;;;;;;;8.90;99.90;;;;;;5050875;28;19914;-75
2021/12/17 01:12:53;;;;;;;;;;;8.80;99.90;;;;;;5052571;28;20347;-75
2021/12/17 01:15:19;;;;;;;;;;;8.70;99.90;;;;;;5051912;28;19955;-75
2021/12/17 01:17:48;;;;;;;;;;;8.70;99.90;;;;;;5052783;28;20274;-75
2021/12/17 01:20:30;;;;;;;;;;;8.60;99.90;;;;;;5052016;28;20409;-75
2021/12/17 01:35:19;;;;;;;;;;;8.40;99.90;;;;;;5051981;28;20011;-74
2021/12/17 01:36:25;;;;;;;;;;;8.10;99.90;;;;;;5052119;28;19911;-74
2021/12/17 01:44:14;;;;;;;;;;;7.90;99.90;;;;;;5050960;28;19969;-75
2021/12/17 01:46:41;;;;;;;;;;;7.80;99.90;;;;;;5056463;28;19904;-74
2021/12/17 02:00:03;;;;;;;;;;;7.40;99.90;;;;;;5056040;28;19912;-74
2021/12/17 02:02:30;;;;;;;;;;;7.40;99.90;;;;;;5055819;28;19988;-75
2021/12/17 02:04:56;;;;;;;;;;;7.30;99.90;;;;;;5056086;28;19919;-74
2021/12/17 02:07:22;;;;;;;;;;;7.20;99.90;;;;;;5055323;28;19908;-74
2021/12/17 02:28:50;;;;;;;;;;;6.70;99.90;;;;;;5055934;28;19951;-74
2021/12/17 02:31:27;;;;;;;;;;;6.70;99.90;;;;;;5054940;28;19947;-73
2021/12/17 02:33:55;;;;;;;;;;;6.60;99.90;;;;;;5055810;28;19962;-74
2021/12/17 02:36:22;;;;;;;;;;;6.50;99.90;;;;;;5055112;28;19912;-74
2021/12/17 02:38:48;;;;;;;;;;;6.50;99.90;;;;;;5055620;28;19905;-73
2021/12/17 02:46:46;;;;;;;;;;;6.30;99.90;;;;;;5063576;28;19965;-74
2021/12/17 02:49:12;;;;;;;;;;;6.30;99.90;;;;;;5055291;28;19992;-74
2021/12/17 02:51:38;;;;;;;;;;;6.30;99.90;;;;;;5054809;28;19912;-74
2021/12/17 02:54:04;;;;;;;;;;;6.20;99.90;;;;;;5055341;28;19908;-74
2021/12/17 02:56:30;;;;;;;;;;;6.20;99.90;;;;;;5054022;28;20244;-74
2021/12/17 02:58:55;;;;;;;;;;;6.10;99.90;;;;;;5055478;28;19909;-74
2021/12/17 03:01:21;;;;;;;;;;;6.10;99.90;;;;;;5054418;28;19904;-73
2021/12/17 03:03:49;;;;;;;;;;;6.10;99.90;;;;;;5054993;28;19909;-74
2021/12/17 03:06:15;;;;;;;;;;;6.10;99.90;;;;;;5054914;28;19959;-74
2021/12/17 03:08:41;;;;;;;;;;;6.00;99.90;;;;;;5054349;28;19920;-73
2021/12/17 03:11:06;;;;;;;;;;;5.90;99.90;;;;;;5055109;28;19955;-74
2021/12/17 03:13:35;;;;;;;;;;;5.90;99.90;;;;;;5054383;28;19976;-74
2021/12/17 03:16:08;;;;;;;;;;;5.90;99.90;;;;;;5053631;28;19948;-73
2021/12/17 03:23:50;;;;;;;;;;;5.80;99.90;;;;;;5054800;28;19912;-74
2021/12/17 03:26:17;;;;;;;;;;;5.80;99.90;;;;;;5054486;28;19904;-73
2021/12/17 03:28:45;;;;;;;;;;;5.80;99.90;;;;;;5054410;28;20339;-74
2021/12/17 03:31:11;;;;;;;;;;;5.80;99.90;;;;;;5054573;28;19905;-73
2021/12/17 03:33:38;;;;;;;;;;;5.70;99.90;;;;;;5054004;28;19908;-73
2021/12/17 03:36:04;;;;;;;;;;;5.70;99.90;;;;;;5054651;28;19943;-73
2021/12/17 03:38:30;;;;;;;;;;;5.60;99.90;;;;;;5053655;28;19904;-73
2021/12/17 03:43:51;;;;;;;;;;;5.60;99.90;;;;;;5053530;28;19912;-73
2021/12/17 03:46:17;;;;;;;;;;;5.50;99.90;;;;;;5054296;28;19905;-74
2021/12/17 03:48:43;;;;;;;;;;;5.40;99.90;;;;;;5053968;28;19908;-73
2021/12/17 03:51:13;;;;;;;;;;;5.40;99.90;;;;;;5054120;28;19912;-74
2021/12/17 03:53:40;;;;;;;;;;;5.40;99.90;;;;;;5053680;28;19911;-74
2021/12/17 03:56:06;;;;;;;;;;;5.40;99.90;;;;;;5053973;28;19959;-75
2021/12/17 03:58:32;;;;;;;;;;;5.40;99.90;;;;;;5053188;28;19905;-74
2021/12/17 04:00:57;;;;;;;;;;;5.40;99.90;;;;;;5053785;28;19958;-74
2021/12/17 04:03:23;;;;;;;;;;;5.40;99.90;;;;;;5053286;28;19909;-74
2021/12/17 04:05:49;;;;;;;;;;;5.30;99.90;;;;;;5054072;28;20350;-74
2021/12/17 04:08:14;;;;;;;;;;;5.30;99.90;;;;;;5052995;28;19961;-74
2021/12/17 04:10:44;;;;;;;;;;;5.30;99.90;;;;;;5053247;28;19900;-74
2021/12/17 04:13:25;;;;;;;;;;;5.50;99.90;;;;;;5053841;28;19905;-74
2021/12/17 04:15:56;;;;;;;;;;;5.50;99.90;;;;;;5054110;28;20267;-74
2021/12/17 04:18:22;;;;;;;;;;;5.50;99.90;;;;;;5053276;28;20351;-75
2021/12/17 04:20:47;;;;;;;;;;;5.50;99.90;;;;;;5069024;28;19905;-74
2021/12/17 04:23:14;;;;;;;;;;;5.60;99.90;;;;;;5053384;28;19916;-74
2021/12/17 04:25:40;;;;;;;;;;;5.60;99.90;;;;;;5053167;28;19994;-74
2021/12/17 04:28:05;;;;;;;;;;;5.80;99.90;;;;;;5053511;28;20399;-74
2021/12/17 04:30:32;;;;;;;;;;;6.00;99.90;;;;;;5052807;28;19904;-75
2021/12/17 04:32:58;;;;;;;;;;;6.20;99.90;;;;;;5053415;28;19911;-74
2021/12/17 04:35:23;;;;;;;;;;;6.30;99.90;;;;;;5052859;28;20278;-75
2021/12/17 04:37:49;;;;;;;;;;;6.40;99.90;;;;;;5053308;28;19905;-74
2021/12/17 04:40:16;;;;;;;;;;;6.50;99.90;;;;;;5053358;28;19974;-74
2021/12/17 04:45:10;;;;;;;;;;;6.60;99.90;;;;;;5053217;28;20236;-74
2021/12/17 04:58:32;;;;;;;;;;;7.10;99.90;;;;;;5052492;28;19954;-74
2021/12/17 05:00:59;;;;;;;;;;;7.20;99.90;;;;;;5052970;28;19944;-74
2021/12/17 05:03:24;;;;;;;;;;;7.30;99.90;;;;;;5052397;28;19905;-73
2021/12/17 05:05:50;;;;;;;;;;;7.30;99.90;;;;;;5052672;28;19912;-74
2021/12/17 05:08:18;;;;;;;;;;;7.30;99.90;;;;;;5052907;28;19920;-74
2021/12/17 05:11:16;;;;;;;;;;;7.40;99.90;;;;;;5050891;28;19908;-73
2021/12/17 05:21:38;;;;;;;;;;;7.50;99.90;;;;;;5052196;28;19911;-73
2021/12/17 05:24:04;;;;;;;;;;;7.50;99.90;;;;;;5052576;28;20279;-73
2021/12/17 05:26:30;;;;;;;;;;;7.50;99.90;;;;;;5051769;28;20339;-74
2021/12/17 05:28:55;;;;;;;;;;;7.50;99.90;;;;;;5052371;28;20279;-73
2021/12/17 05:31:22;;;;;;;;;;;7.40;99.90;;;;;;5060444;28;20278;-73
2021/12/17 05:33:48;;;;;;;;;;;7.40;99.90;;;;;;5059746;28;19980;-73
2021/12/17 05:36:14;;;;;;;;;;;7.40;99.90;;;;;;5052824;28;20045;-73
2021/12/17 05:38:40;;;;;;;;;;;7.30;99.90;;;;;;5051925;28;19962;-73
2021/12/17 05:41:05;;;;;;;;;;;7.30;99.90;;;;;;5052296;28;20007;-73
2021/12/17 05:43:36;;;;;;;;;;;7.20;99.90;;;;;;5051670;28;19905;-73
2021/12/17 05:46:08;;;;;;;;;;;7.10;99.90;;;;;;5052280;28;19913;-73
2021/12/17 05:48:34;;;;;;;;;;;7.00;99.90;;;;;;5051750;28;20262;-73
2021/12/17 05:51:00;;;;;;;;;;;7.00;99.90;;;;;;5052397;28;19999;-73
2021/12/17 05:53:27;;;;;;;;;;;6.90;99.90;;;;;;5052320;28;19905;-73
2021/12/17 05:55:55;;;;;;;;;;;6.70;99.90;;;;;;5051924;28;19905;-73
2021/12/17 05:58:21;;;;;;;;;;;6.70;99.90;;;;;;5052367;28;20007;-73
2021/12/17 06:00:46;;;;;;;;;;;6.60;99.90;;;;;;5051520;28;19908;-73
2021/12/17 06:03:12;;;;;;;;;;;6.50;99.90;;;;;;5052133;28;19905;-73
2021/12/17 06:05:38;;;;;;;;;;;6.40;99.90;;;;;;5051560;28;19920;-73
2021/12/17 06:08:04;;;;;;;;;;;6.30;99.90;;;;;;5052237;28;20363;-73
2021/12/17 06:10:30;;;;;;;;;;;6.20;99.90;;;;;;5051614;28;19995;-74
2021/12/17 06:12:55;;;;;;;;;;;6.20;99.90;;;;;;5052208;28;20378;-74
2021/12/17 06:15:21;;;;;;;;;;;6.00;99.90;;;;;;5051998;28;19912;-74
2021/12/17 06:17:47;;;;;;;;;;;6.00;99.90;;;;;;5051456;28;19905;-74
2021/12/17 06:20:14;;;;;;;;;;;5.90;99.90;;;;;;5052124;28;19912;-74
2021/12/17 06:22:39;;;;;;;;;;;5.80;99.90;;;;;;5051474;28;19904;-73
2021/12/17 06:25:06;;;;;;;;;;;5.80;99.90;;;;;;5052175;28;19935;-73
2021/12/17 06:27:32;;;;;;;;;;;5.70;99.90;;;;;;5051805;28;19905;-73
2021/12/17 06:29:57;;;;;;;;;;;5.60;99.90;;;;;;5051852;28;20244;-73
2021/12/17 06:32:23;;;;;;;;;;;5.60;99.90;;;;;;5055539;28;19935;-73
2021/12/17 06:34:49;;;;;;;;;;;5.50;99.90;;;;;;5054717;28;20503;-73
2021/12/17 06:37:15;;;;;;;;;;;5.40;99.90;;;;;;5055687;28;20391;-73
2021/12/17 06:39:42;;;;;;;;;;;5.30;99.90;;;;;;5054659;28;20382;-73
2021/12/17 06:42:07;;;;;;;;;;;5.20;99.90;;;;;;5055377;28;19904;-72
2021/12/17 06:44:33;;;;;;;;;;;5.10;99.90;;;;;;5054695;28;20426;-75
2021/12/17 06:47:07;;;;;;;;;;;5.00;99.90;;;;;;5055627;28;19905;-73
2021/12/17 07:00:09;;;;;;;;;;;4.50;99.90;;;;;;5055205;28;19911;-73
2021/12/17 07:10:44;;;;;;;;;;;4.20;99.90;;;;;;5054404;28;19904;-73
2021/12/17 07:34:40;;;;;;;;;;;3.90;99.90;;;;;;5054512;28;19909;-73
2021/12/17 07:39:33;;;;;;;;;;;3.80;99.90;;;;;;5054643;28;19947;-73
2021/12/17 07:41:58;;;;;;;;;;;3.70;99.90;;;;;;5051380;28;19980;-73
2021/12/17 07:44:24;;;;;;;;;;;3.70;99.90;;;;;;5054264;28;19954;-73
2021/12/17 07:46:50;;;;;;;;;;;3.70;99.90;;;;;;5053341;28;20235;-72
2021/12/17 07:49:15;;;;;;;;;;;3.70;99.90;;;;;;5054292;28;19905;-73
2021/12/17 07:51:41;;;;;;;;;;;3.60;99.90;;;;;;5054839;28;20355;-73
2021/12/17 07:54:07;;;;;;;;;;;3.60;99.90;;;;;;5053874;28;20012;-73
2021/12/17 07:56:37;;;;;;;;;;;3.60;99.90;;;;;;5054066;28;19911;-73
2021/12/17 07:59:07;;;;;;;;;;;3.50;99.90;;;;;;5053882;28;20003;-73
2021/12/17 08:01:32;;;;;;;;;;;3.50;99.90;;;;;;5053704;28;19947;-73
2021/12/17 08:03:58;;;;;;;;;;;3.40;99.90;;;;;;5052942;28;19901;-73
2021/12/17 08:06:24;;;;;;;;;;;3.40;99.90;;;;;;5053341;28;19915;-73
2021/12/17 08:08:49;;;;;;;;;;;3.40;99.90;;;;;;5053275;28;19956;-73
2021/12/17 08:11:15;;;;;;;;;;;3.40;99.90;;;;;;5052560;28;19904;-73
2021/12/17 08:13:43;;;;;;;;;;;3.40;99.90;;;;;;5052703;28;19966;-73
2021/12/17 08:16:18;;;;;;;;;;;3.40;99.90;;;;;;5052230;28;19974;-73
2021/12/17 08:24:39;;;;;;;;;;;3.30;99.90;;;;;;5052691;28;19908;-74
2021/12/17 08:29:54;;;;;;;;;;;3.20;99.90;;;;;;5053355;28;19966;-74
2021/12/17 08:32:15;;;;;;;;;;;3.20;99.90;;;;;;5052589;28;20375;-73
2021/12/17 08:34:40;;;;;;;;;;;3.20;99.90;;;;;;5051025;28;19904;-75
2021/12/17 08:37:06;;;;;;;;;;;3.20;99.90;;;;;;5052927;28;19928;-73
2021/12/17 08:39:32;;;;;;;;;;;3.20;99.90;;;;;;5053173;28;19911;-74
2021/12/17 08:41:59;;;;;;;;;;;3.20;99.90;;;;;;5052129;28;19979;-74
2021/12/17 08:44:25;;;;;;;;;;;3.20;99.90;;;;;;5052370;28;20466;-75
2021/12/17 08:46:51;;;;;;;;;;;3.20;99.90;;;;;;5056361;28;19905;-74
2021/12/17 08:49:16;;;;;;;;;;;3.10;99.90;;;;;;5059247;28;19904;-72
2021/12/17 08:51:43;;;;;;;;;;;3.10;99.90;;;;;;5053401;28;19904;-75
2021/12/17 08:54:08;;;;;;;;;;;3.10;99.90;;;;;;5052296;28;20338;-72
2021/12/17 08:56:35;;;;;;;;;;;3.10;99.90;;;;;;5052820;28;19909;-72
2021/12/17 08:59:02;;;;;;;;;;;3.10;99.90;;;;;;5052258;28;19912;-73
2021/12/17 09:01:28;;;;;;;;;;;3.10;99.90;;;;;;5052369;28;19948;-73
2021/12/17 09:03:53;;;;;;;;;;;3.10;99.90;;;;;;5050543;28;19909;-74
2021/12/17 09:06:24;;;;;;;;;;;3.20;99.90;;;;;;5053096;28;19904;-73
2021/12/17 09:08:54;;;;;;;;;;;3.20;99.90;;;;;;5051700;28;19917;-74
2021/12/17 09:11:19;;;;;;;;;;;3.20;99.90;;;;;;5052835;28;20309;-74
2021/12/17 09:13:45;;;;;;;;;;;3.30;99.90;;;;;;5052093;28;19905;-74
2021/12/17 09:16:10;;;;;;;;;;;3.30;99.90;;;;;;5052693;28;20334;-73
2021/12/17 09:18:36;;;;;;;;;;;3.50;99.90;;;;;;5052391;28;19912;-74
2021/12/17 09:21:01;;;;;;;;;;;3.70;99.90;;;;;;5051874;28;20507;-74
2021/12/17 09:23:27;;;;;;;;;;;4.00;99.90;;;;;;5051067;28;19940;-75
2021/12/17 09:25:53;;;;;;;;;;;4.30;99.90;;;;;;5051879;28;19919;-74
2021/12/17 09:28:18;;;;;;;;;;;4.70;99.90;;;;;;5052425;28;20360;-75
2021/12/17 09:30:44;;;;;;;;;;;5.00;99.90;;;;;;5052160;28;19905;-76
2021/12/17 09:33:10;;;;;;;;;;;5.30;99.90;;;;;;5052124;28;20039;-75
2021/12/17 09:35:35;;;;;;;;;;;5.50;99.90;;;;;;5052366;28;19970;-74
2021/12/17 09:38:01;;;;;;;;;;;5.70;99.90;;;;;;5051496;28;19988;-74
2021/12/17 09:40:26;;;;;;;;;;;5.90;99.90;;;;;;5050748;28;19904;-73
2021/12/17 09:42:52;;;;;;;;;;;6.10;99.90;;;;;;5051510;28;19912;-75
2021/12/17 09:45:18;;;;;;;;;;;6.20;99.90;;;;;;5053183;28;20262;-74
2021/12/17 09:47:44;;;;;;;;;;;6.50;99.90;;;;;;5052355;28;19913;-75
2021/12/17 09:50:12;;;;;;;;;;;6.60;99.90;;;;;;5052259;28;19905;-73
2021/12/17 09:52:38;;;;;;;;;;;6.80;99.90;;;;;;5052354;28;19927;-75
2021/12/17 09:55:04;;;;;;;;;;;6.90;99.90;;;;;;5067006;28;20414;-75
2021/12/17 09:57:35;;;;;;;;;;;6.90;99.90;;;;;;5067700;28;19912;-75
2021/12/17 10:00:21;;;;;;;;;;;7.10;99.90;;;;;;5052052;28;20421;-74
2021/12/17 10:02:48;;;;;;;;;;;7.10;99.90;;;;;;5067315;28;19911;-75
2021/12/17 10:05:25;;;;;;;;;;;7.30;99.90;;;;;;5052293;28;19924;-74
2021/12/17 10:07:55;;;;;;;;;;;7.40;99.90;;;;;;5055171;28;19916;-74
2021/12/17 10:10:20;;;;;;;;;;;7.50;99.90;;;;;;5054622;28;19999;-74
2021/12/17 10:12:47;;;;;;;;;;;7.50;99.90;;;;;;5055331;28;20001;-76
2021/12/17 10:15:16;;;;;;;;;;;7.70;99.90;;;;;;5055660;28;19911;-75
2021/12/17 10:17:51;;;;;;;;;;;7.70;99.90;;;;;;5054863;28;19905;-74
2021/12/17 10:20:16;;;;;;;;;;;7.80;99.90;;;;;;5054384;28;19905;-74
2021/12/17 10:22:46;;;;;;;;;;;7.80;99.90;;;;;;5055679;28;19996;-74
2021/12/17 10:25:12;;;;;;;;;;;7.90;99.90;;;;;;5055665;28;19966;-74
2021/12/17 10:27:42;;;;;;;;;;;7.90;99.90;;;;;;5055428;28;19912;-75
2021/12/17 10:30:13;;;;;;;;;;;8.00;99.90;;;;;;5054970;28;19901;-74
2021/12/17 10:32:41;;;;;;;;;;;8.00;99.90;;;;;;5055579;28;19905;-75
2021/12/17 10:35:08;;;;;;;;;;;8.10;99.90;;;;;;5054877;28;20469;-75
2021/12/17 10:37:39;;;;;;;;;;;8.10;99.90;;;;;;5055494;28;19909;-74
2021/12/17 10:40:15;;;;;;;;;;;8.10;99.90;;;;;;5068162;28;19908;-75
2021/12/17 10:42:48;;;;;;;;;;;8.10;99.90;;;;;;5054364;28;20003;-74
2021/12/17 10:45:23;;;;;;;;;;;8.20;99.90;;;;;;5054414;28;19916;-74
2021/12/17 10:48:01;;;;;;;;;;;8.30;99.90;;;;;;5054444;28;19904;-75
2021/12/17 10:50:27;;;;;;;;;;;8.30;99.90;;;;;;5055088;28;19948;-74
2021/12/17 10:52:56;;;;;;;;;;;8.30;99.90;;;;;;5054393;28;19909;-75
2021/12/17 10:55:23;;;;;;;;;;;8.30;99.90;;;;;;5055134;28;19937;-73
2021/12/17 10:57:49;;;;;;;;;;;8.30;99.90;;;;;;5054585;28;20314;-74
2021/12/17 11:00:16;;;;;;;;;;;8.40;99.90;;;;;;5054804;28;19904;-74
2021/12/17 11:02:48;;;;;;;;;;;8.40;99.90;;;;;;5054657;28;19912;-74
2021/12/17 11:05:15;;;;;;;;;;;8.40;99.90;;;;;;5054116;28;19971;-74
2021/12/17 11:07:47;;;;;;;;;;;8.40;99.90;;;;;;5054631;28;19916;-74
2021/12/17 11:10:15;;;;;;;;;;;8.50;99.90;;;;;;5054433;28;19983;-74
2021/12/17 11:12:44;;;;;;;;;;;8.50;99.90;;;;;;5054834;28;20018;-74
2021/12/17 11:15:19;;;;;;;;;;;8.50;99.90;;;;;;5054195;28;20011;-74
2021/12/17 11:17:50;;;;;;;;;;;8.60;99.90;;;;;;5054284;28;19966;-74
2021/12/17 11:20:15;;;;;;;;;;;8.60;99.90;;;;;;5054323;28;19905;-73
2021/12/17 11:22:42;;;;;;;;;;;8.70;99.90;;;;;;5054538;28;19912;-74
2021/12/17 11:25:08;;;;;;;;;;;8.70;99.90;;;;;;5053850;28;19912;-75
2021/12/17 11:27:34;;;;;;;;;;;8.80;99.90;;;;;;5054256;28;19909;-74
2021/12/17 11:30:00;;;;;;;;;;;8.80;99.90;;;;;;5053949;28;19951;-75
2021/12/17 11:32:26;;;;;;;;;;;8.90;99.90;;;;;;5054151;28;19904;-74
2021/12/17 11:34:52;;;;;;;;;;;8.90;99.90;;;;;;5053143;28;20000;-73
2021/12/17 11:37:19;;;;;;;;;;;8.90;99.90;;;;;;5053724;28;20462;-73
2021/12/17 11:39:50;;;;;;;;;;;8.90;99.90;;;;;;5054330;28;19966;-73
2021/12/17 11:42:35;;;;;;;;;;;8.90;99.90;;;;;;5053991;28;19905;-73
2021/12/17 11:47:46;;;;;;;;;;;8.90;99.90;;;;;;5054292;28;19912;-74
2021/12/17 11:50:13;;;;;;;;;;;8.90;99.90;;;;;;5053516;28;19936;-74
2021/12/17 11:52:38;;;;;;;;;;;9.00;99.90;;;;;;5054268;28;19905;-75
2021/12/17 11:55:22;;;;;;;;;;;9.00;99.90;;;;;;5052146;28;19916;-74
2021/12/17 11:57:49;;;;;;;;;;;9.10;99.90;;;;;;5052718;28;20351;-74
2021/12/17 12:00:16;;;;;;;;;;;9.10;99.90;;;;;;5053420;28;19911;-74
2021/12/17 12:02:49;;;;;;;;;;;9.10;99.90;;;;;;5053773;28;19904;-75
2021/12/17 12:05:34;;;;;;;;;;;9.10;99.90;;;;;;5053054;28;19913;-75
2021/12/17 12:08:18;;;;;;;;;;;9.10;99.90;;;;;;5052822;28;19916;-73
2021/12/17 12:11:01;;;;;;;;;;;9.10;99.90;;;;;;5053260;28;19909;-74
2021/12/17 12:13:43;;;;;;;;;;;9.20;99.90;;;;;;5053831;28;19912;-74
2021/12/17 12:16:10;;;;;;;;;;;9.10;99.90;;;;;;5053120;28;19908;-75
2021/12/17 12:18:39;;;;;;;;;;;9.20;99.90;;;;;;5053562;28;19943;-74
2021/12/17 12:21:05;;;;;;;;;;;9.20;99.90;;;;;;5051571;28;19931;-74
2021/12/17 12:23:31;;;;;;;;;;;9.20;99.90;;;;;;5068728;28;19904;-74
2021/12/17 12:26:11;;;;;;;;;;;9.10;99.90;;;;;;5052752;28;19919;-75
2021/12/17 12:28:46;;;;;;;;;;;9.10;99.90;;;;;;5052489;28;19991;-75
2021/12/17 12:31:12;;;;;;;;;;;9.10;99.90;;;;;;5052220;28;20391;-75
2021/12/17 12:33:57;;;;;;;;;;;9.10;99.90;;;;;;5053269;28;19905;-74
2021/12/17 12:36:42;;;;;;;;;;;9.10;99.90;;;;;;5052851;28;19905;-74
2021/12/17 12:39:13;;;;;;;;;;;9.00;99.90;;;;;;5052861;28;19904;-74
2021/12/17 12:41:46;;;;;;;;;;;9.00;99.90;;;;;;5052821;28;19904;-74
2021/12/17 12:44:11;;;;;;;;;;;9.00;99.90;;;;;;5052006;28;19966;-74
2021/12/17 12:46:47;;;;;;;;;;;8.90;99.90;;;;;;5052801;28;19909;-74
2021/12/17 12:49:31;;;;;;;;;;;9.00;99.90;;;;;;5052229;28;19904;-74
2021/12/17 12:52:26;;;;;;;;;;;9.00;99.90;;;;;;5052596;28;19911;-73
2021/12/17 12:54:53;;;;;;;;;;;9.00;99.90;;;;;;5051900;28;19915;-73
2021/12/17 12:57:26;;;;;;;;;;;9.00;99.90;;;;;;5051891;28;20524;-73
2021/12/17 12:59:52;;;;;;;;;;;9.00;99.90;;;;;;5052504;28;19905;-74
2021/12/17 13:02:18;;;;;;;;;;;9.00;99.90;;;;;;5052163;28;20346;-74
2021/12/17 13:04:45;;;;;;;;;;;9.00;99.90;;;;;;5052762;28;20058;-74
2021/12/17 13:07:12;;;;;;;;;;;9.00;99.90;;;;;;5054406;28;19904;-74
2021/12/17 13:09:44;;;;;;;;;;;9.00;99.90;;;;;;5056826;28;19904;-74
2021/12/17 13:12:10;;;;;;;;;;;9.00;99.90;;;;;;5054543;28;19992;-74
2021/12/17 13:14:44;;;;;;;;;;;9.00;99.90;;;;;;5052690;28;20310;-73
2021/12/17 13:17:41;;;;;;;;;;;9.00;99.90;;;;;;5052399;28;19904;-74
2021/12/17 13:20:42;;;;;;;;;;;9.00;99.90;;;;;;5051760;28;19909;-74
2021/12/17 13:23:13;;;;;;;;;;;8.90;99.90;;;;;;5051484;28;19911;-74
2021/12/17 13:25:39;;;;;;;;;;;8.80;99.90;;;;;;5052586;28;19924;-74
2021/12/17 13:28:05;;;;;;;;;;;8.70;99.90;;;;;;5051735;28;19908;-74
2021/12/17 13:30:30;;;;;;;;;;;8.70;99.90;;;;;;5052524;28;19927;-74
2021/12/17 13:32:56;;;;;;;;;;;8.70;99.90;;;;;;5052294;28;19904;-75
2021/12/17 13:35:22;;;;;;;;;;;8.70;99.90;;;;;;5051404;28;19915;-74
2021/12/17 13:37:59;;;;;;;;;;;8.60;99.90;;;;;;5052242;28;20340;-75
2021/12/17 13:40:26;;;;;;;;;;;8.60;99.90;;;;;;5054656;28;19983;-75
2021/12/17 13:42:52;;;;;;;;;;;8.60;99.90;;;;;;5056207;28;19996;-74
2021/12/17 13:45:20;;;;;;;;;;;8.50;99.90;;;;;;5055742;28;19959;-75
2021/12/17 13:47:50;;;;;;;;;;;8.50;99.90;;;;;;5054839;28;19930;-74
2021/12/17 13:50:20;;;;;;;;;;;8.50;99.90;;;;;;5055750;28;19904;-74
2021/12/17 13:52:48;;;;;;;;;;;8.50;99.90;;;;;;5056193;28;19927;-74
2021/12/17 13:55:15;;;;;;;;;;;8.50;99.90;;;;;;5055698;28;19905;-75
2021/12/17 13:57:41;;;;;;;;;;;8.50;99.90;;;;;;5055895;28;19944;-74
2021/12/17 14:00:12;;;;;;;;;;;8.50;99.90;;;;;;5054314;28;20271;-74
2021/12/17 14:02:39;;;;;;;;;;;8.50;99.90;;;;;;5056161;28;19972;-75
2021/12/17 14:05:09;;;;;;;;;;;8.50;99.90;;;;;;5055116;28;19913;-75
2021/12/17 14:07:37;;;;;;;;;;;8.50;99.90;;;;;;5056053;28;19955;-75
2021/12/17 14:10:14;;;;;;;;;;;8.50;99.90;;;;;;5055235;28;20378;-75
2021/12/17 14:12:41;;;;;;;;;;;8.50;99.90;;;;;;5056676;28;20351;-75
2021/12/17 14:15:08;;;;;;;;;;;8.50;99.90;;;;;;5055339;28;19905;-75
2021/12/17 14:17:34;;;;;;;;;;;8.40;99.90;;;;;;5054565;28;19909;-74
2021/12/17 14:20:06;;;;;;;;;;;8.50;99.90;;;;;;5056000;28;19995;-74
2021/12/17 14:22:34;;;;;;;;;;;8.40;99.90;;;;;;5055428;28;19959;-74
2021/12/17 14:25:00;;;;;;;;;;;8.40;99.90;;;;;;5055640;28;19935;-75
2021/12/17 14:27:41;;;;;;;;;;;8.40;99.90;;;;;;5055113;28;20178;-74
2021/12/17 14:30:07;;;;;;;;;;;8.40;99.90;;;;;;5054950;28;19909;-76
2021/12/17 14:32:38;;;;;;;;;;;8.40;99.90;;;;;;5071004;28;20282;-75
2021/12/17 14:35:04;;;;;;;;;;;8.40;99.90;;;;;;5055076;28;19915;-75
2021/12/17 14:37:30;;;;;;;;;;;8.40;99.90;;;;;;5055251;28;20021;-74
2021/12/17 14:39:58;;;;;;;;;;;8.40;99.90;;;;;;5055397;28;20351;-74
2021/12/17 14:42:33;;;;;;;;;;;8.40;99.90;;;;;;5054718;28;19904;-74
2021/12/17 14:45:06;;;;;;;;;;;8.40;99.90;;;;;;5055273;28;19958;-74
2021/12/17 14:47:46;;;;;;;;;;;8.40;99.90;;;;;;5054991;28;19999;-75
2021/12/17 15:01:35;;;;;;;;;;;8.30;99.90;;;;;;5053037;28;19911;-74
2021/12/17 15:04:01;;;;;;;;;;;8.30;99.90;;;;;;5054704;28;19912;-74
2021/12/17 15:06:27;;;;;;;;;;;8.20;99.90;;;;;;5069373;28;19908;-75
2021/12/17 15:08:52;;;;;;;;;;;8.20;99.90;;;;;;5054685;28;19917;-74
2021/12/17 15:11:28;;;;;;;;;;;8.20;99.90;;;;;;5053683;28;19905;-75
2021/12/17 15:13:54;;;;;;;;;;;8.20;99.90;;;;;;5054507;28;19999;-75
2021/12/17 15:16:19;;;;;;;;;;;8.20;99.90;;;;;;5053718;28;19908;-75
2021/12/17 15:18:45;;;;;;;;;;;8.10;99.90;;;;;;5054295;28;19905;-75
2021/12/17 15:21:12;;;;;;;;;;;8.10;99.90;;;;;;5053730;28;19972;-75
2021/12/17 15:23:37;;;;;;;;;;;8.10;99.90;;;;;;5054255;28;19970;-75
2021/12/17 15:26:03;;;;;;;;;;;8.10;99.90;;;;;;5054192;28;20005;-75
2021/12/17 15:28:29;;;;;;;;;;;8.10;99.90;;;;;;5053362;28;19920;-75
2021/12/17 15:31:00;;;;;;;;;;;8.10;99.90;;;;;;5053521;28;19916;-75
2021/12/17 15:33:26;;;;;;;;;;;8.20;99.90;;;;;;5053384;28;19900;-75
2021/12/17 15:35:52;;;;;;;;;;;8.20;99.90;;;;;;5069419;28;19932;-75
2021/12/17 15:38:18;;;;;;;;;;;8.20;99.90;;;;;;5053086;28;19999;-75
2021/12/17 15:40:45;;;;;;;;;;;8.20;99.90;;;;;;5054044;28;20389;-75
2021/12/17 15:43:11;;;;;;;;;;;8.30;99.90;;;;;;5053107;28;19905;-75
2021/12/17 15:45:38;;;;;;;;;;;8.30;99.90;;;;;;5053545;28;19919;-75
2021/12/17 15:48:05;;;;;;;;;;;8.30;99.90;;;;;;5053817;28;19916;-75
2021/12/17 15:50:30;;;;;;;;;;;8.20;99.90;;;;;;5053074;28;20348;-74
2021/12/17 15:52:56;;;;;;;;;;;8.20;99.90;;;;;;5053345;28;19905;-75
2021/12/17 15:55:25;;;;;;;;;;;8.20;99.90;;;;;;5052767;28;19952;-75
2021/12/17 15:57:53;;;;;;;;;;;8.20;99.90;;;;;;5053527;28;19912;-75
2021/12/17 16:00:20;;;;;;;;;;;8.10;99.90;;;;;;5052772;28;19905;-75
2021/12/17 16:02:45;;;;;;;;;;;8.10;99.90;;;;;;5052605;28;20279;-74
2021/12/17 16:05:13;;;;;;;;;;;8.10;99.90;;;;;;5052470;28;19913;-75
2021/12/17 16:07:39;;;;;;;;;;;8.10;99.90;;;;;;5052762;28;20003;-74
2021/12/17 16:18:15;;;;;;;;;;;8.00;99.90;;;;;;5053057;28;19954;-74
2021/12/17 16:21:01;;;;;;;;;;;8.00;99.90;;;;;;5066767;28;19919;-74
2021/12/17 16:23:27;;;;;;;;;;;8.00;99.90;;;;;;5050360;28;19909;-75
2021/12/17 16:25:53;;;;;;;;;;;8.10;99.90;;;;;;5052016;28;20406;-74
2021/12/17 16:28:19;;;;;;;;;;;8.00;99.90;;;;;;5051770;28;19980;-75
2021/12/17 16:30:44;;;;;;;;;;;8.00;99.90;;;;;;5067684;28;19905;-74
2021/12/17 16:33:10;;;;;;;;;;;8.10;99.90;;;;;;5051806;28;19955;-75
2021/12/17 16:35:36;;;;;;;;;;;8.10;99.90;;;;;;5052042;28;19954;-75
2021/12/17 16:38:01;;;;;;;;;;;8.10;99.90;;;;;;5052211;28;20346;-74
2021/12/17 16:40:27;;;;;;;;;;;8.10;99.90;;;;;;5051198;28;19927;-75
2021/12/17 16:42:54;;;;;;;;;;;8.10;99.90;;;;;;5052312;28;19939;-75
2021/12/17 16:47:46;;;;;;;;;;;8.10;99.90;;;;;;5051628;28;20595;-75
2021/12/17 16:50:12;;;;;;;;;;;8.10;99.90;;;;;;5050003;28;19927;-75
2021/12/17 16:52:38;;;;;;;;;;;8.10;99.90;;;;;;5051778;28;19905;-75
2021/12/17 16:55:05;;;;;;;;;;;8.10;99.90;;;;;;5051696;28;19913;-75
2021/12/17 16:57:31;;;;;;;;;;;8.10;99.90;;;;;;5051632;28;19911;-75
2021/12/17 16:59:57;;;;;;;;;;;8.10;99.90;;;;;;5052001;28;19905;-73
2021/12/17 17:02:23;;;;;;;;;;;8.10;99.90;;;;;;5051607;28;19905;-74
2021/12/17 17:04:48;;;;;;;;;;;8.10;99.90;;;;;;5052123;28;19999;-73
2021/12/17 17:07:14;;;;;;;;;;;8.10;99.90;;;;;;5051554;28;19912;-74
2021/12/17 17:09:40;;;;;;;;;;;8.00;99.90;;;;;;5052608;28;19905;-73
2021/12/17 17:12:08;;;;;;;;;;;8.10;99.90;;;;;;5051956;28;19904;-74
2021/12/17 17:14:34;;;;;;;;;;;8.10;99.90;;;;;;5051466;28;20007;-73
2021/12/17 17:17:00;;;;;;;;;;;8.10;99.90;;;;;;5052052;28;20416;-73
2021/12/17 17:19:26;;;;;;;;;;;8.10;99.90;;;;;;5051225;28;20046;-73
2021/12/17 17:21:51;;;;;;;;;;;8.10;99.90;;;;;;5051829;28;19957;-73
2021/12/17 17:24:18;;;;;;;;;;;8.10;99.90;;;;;;5051378;28;19944;-73
2021/12/17 17:26:44;;;;;;;;;;;8.20;99.90;;;;;;5051727;28;19905;-74
2021/12/17 17:29:09;;;;;;;;;;;8.20;99.90;;;;;;5051664;28;19905;-74
2021/12/17 17:31:35;;;;;;;;;;;8.10;99.90;;;;;;5051272;28;19911;-74
2021/12/17 17:34:04;;;;;;;;;;;8.10;99.90;;;;;;5051867;28;19955;-73
2021/12/17 17:36:30;;;;;;;;;;;8.10;99.90;;;;;;5051305;28;19908;-73
2021/12/17 17:38:55;;;;;;;;;;;8.20;99.90;;;;;;5050786;28;19905;-73
2021/12/17 17:41:24;;;;;;;;;;;8.20;99.90;;;;;;5051251;28;19908;-74
2021/12/17 17:43:52;;;;;;;;;;;8.20;99.90;;;;;;5051684;28;19905;-74
2021/12/17 17:46:18;;;;;;;;;;;8.10;99.90;;;;;;5051082;28;19942;-74